sensor_id;sensor_type;location;lat;lon;timestamp;P1;durP1;ratioP1;P2;durP2;ratioP2
17193;SDS011;8713;48.388;10.928;2023-08-31T02:43:38;2.83;;;1.83;;
17193;SDS011;8713;48.388;10.928;2023-08-31T02:44:51;2.55;;;1.70;;
17193;SDS011;8713;48.388;10.928;2023-08-31T02:46:02;3.10;;;2.00;;
17193;SDS011;8713;48.388;10.928;2023-08-31T02:47:12;2.70;;;2.13;;
17193;SDS011;8713;48.388;10.928;2023-08-31T02:48:21;2.35;;;2.15;;
17193;SDS011;8713;48.388;10.928;2023-08-31T02:49:31;3.00;;;1.92;;
17193;SDS011;8713;48.388;10.928;2023-08-31T02:50:41;3.70;;;2.28;;
17193;SDS011;8713;48.388;10.928;2023-08-31T02:51:50;4.03;;;2.38;;
17193;SDS011;8713;48.388;10.928;2023-08-31T02:53:00;2.30;;;1.90;;
17193;SDS011;8713;48.388;10.928;2023-08-31T02:54:09;2.38;;;2.13;;
17193;SDS011;8713;48.388;10.928;2023-08-31T02:55:19;2.72;;;2.15;;
17193;SDS011;8713;48.388;10.928;2023-08-31T02:56:30;2.53;;;2.03;;
17193;SDS011;8713;48.388;10.928;2023-08-31T02:57:39;2.35;;;2.00;;
17193;SDS011;8713;48.388;10.928;2023-08-31T02:58:48;3.38;;;2.17;;
17193;SDS011;8713;48.388;10.928;2023-08-31T02:59:58;3.22;;;2.08;;
17193;SDS011;8713;48.388;10.928;2023-08-31T03:01:09;2.22;;;1.77;;
17193;SDS011;8713;48.388;10.928;2023-08-31T03:02:21;2.33;;;1.98;;
17193;SDS011;8713;48.388;10.928;2023-08-31T03:03:30;2.53;;;1.95;;
17193;SDS011;8713;48.388;10.928;2023-08-31T03:04:40;2.80;;;2.10;;
17193;SDS011;8713;48.388;10.928;2023-08-31T03:05:54;2.35;;;2.03;;
17193;SDS011;8713;48.388;10.928;2023-08-31T03:07:04;2.03;;;1.70;;
17193;SDS011;8713;48.388;10.928;2023-08-31T03:08:15;2.88;;;1.85;;
17193;SDS011;8713;48.388;10.928;2023-08-31T03:09:25;2.22;;;1.90;;
17193;SDS011;8713;48.388;10.928;2023-08-31T03:10:35;3.35;;;2.13;;
17193;SDS011;8713;48.388;10.928;2023-08-31T03:11:44;2.85;;;1.92;;
17193;SDS011;8713;48.388;10.928;2023-08-31T03:12:53;3.45;;;1.98;;
17193;SDS011;8713;48.388;10.928;2023-08-31T03:14:03;3.22;;;1.83;;
17193;SDS011;8713;48.388;10.928;2023-08-31T03:15:12;2.83;;;1.98;;
17193;SDS011;8713;48.388;10.928;2023-08-31T03:16:22;3.75;;;2.20;;
17193;SDS011;8713;48.388;10.928;2023-08-31T03:17:31;2.97;;;2.20;;
17193;SDS011;8713;48.388;10.928;2023-08-31T03:18:41;3.28;;;2.00;;
17193;SDS011;8713;48.388;10.928;2023-08-31T03:19:50;3.17;;;2.10;;
17193;SDS011;8713;48.388;10.928;2023-08-31T03:20:59;2.33;;;1.83;;
17193;SDS011;8713;48.388;10.928;2023-08-31T03:22:09;2.33;;;1.80;;
17193;SDS011;8713;48.388;10.928;2023-08-31T03:23:18;2.15;;;1.80;;
17193;SDS011;8713;48.388;10.928;2023-08-31T03:24:28;3.03;;;2.10;;
17193;SDS011;8713;48.388;10.928;2023-08-31T03:25:39;3.95;;;1.90;;
17193;SDS011;8713;48.388;10.928;2023-08-31T03:26:50;3.15;;;1.60;;
17193;SDS011;8713;48.388;10.928;2023-08-31T03:28:00;2.47;;;1.40;;
17193;SDS011;8713;48.388;10.928;2023-08-31T03:29:10;3.03;;;1.90;;
17193;SDS011;8713;48.388;10.928;2023-08-31T03:30:20;2.47;;;1.75;;
17193;SDS011;8713;48.388;10.928;2023-08-31T03:31:29;3.15;;;1.77;;
17193;SDS011;8713;48.388;10.928;2023-08-31T03:32:40;2.60;;;1.80;;
17193;SDS011;8713;48.388;10.928;2023-08-31T03:33:50;2.50;;;1.70;;
17193;SDS011;8713;48.388;10.928;2023-08-31T03:35:01;3.50;;;1.65;;
17193;SDS011;8713;48.388;10.928;2023-08-31T03:36:13;3.50;;;2.08;;
17193;SDS011;8713;48.388;10.928;2023-08-31T03:37:22;3.00;;;2.03;;
17193;SDS011;8713;48.388;10.928;2023-08-31T03:38:32;6.18;;;2.40;;
17193;SDS011;8713;48.388;10.928;2023-08-31T03:39:49;6.10;;;2.38;;
17193;SDS011;8713;48.388;10.928;2023-08-31T03:40:59;3.03;;;1.90;;
17193;SDS011;8713;48.388;10.928;2023-08-31T03:42:09;3.45;;;2.20;;
17193;SDS011;8713;48.388;10.928;2023-08-31T03:43:18;2.22;;;1.60;;
17193;SDS011;8713;48.388;10.928;2023-08-31T03:44:28;2.83;;;1.88;;
17193;SDS011;8713;48.388;10.928;2023-08-31T03:45:38;3.10;;;1.65;;
17193;SDS011;8713;48.388;10.928;2023-08-31T03:46:47;2.33;;;1.88;;
17193;SDS011;8713;48.388;10.928;2023-08-31T03:47:57;2.15;;;1.60;;
17193;SDS011;8713;48.388;10.928;2023-08-31T03:49:07;4.47;;;1.80;;
17193;SDS011;8713;48.388;10.928;2023-08-31T03:50:17;2.72;;;1.60;;
17193;SDS011;8713;48.388;10.928;2023-08-31T03:51:29;3.30;;;1.95;;
17193;SDS011;8713;48.388;10.928;2023-08-31T03:52:39;3.03;;;1.70;;
17193;SDS011;8713;48.388;10.928;2023-08-31T03:53:49;2.50;;;1.80;;
17193;SDS011;8713;48.388;10.928;2023-08-31T03:55:00;3.78;;;1.70;;
17193;SDS011;8713;48.388;10.928;2023-08-31T03:56:10;2.75;;;1.77;;
17193;SDS011;8713;48.388;10.928;2023-08-31T03:57:20;2.15;;;1.65;;
17193;SDS011;8713;48.388;10.928;2023-08-31T03:58:34;2.35;;;1.58;;
17193;SDS011;8713;48.388;10.928;2023-08-31T03:59:44;2.30;;;1.63;;
17193;SDS011;8713;48.388;10.928;2023-08-31T04:00:54;2.25;;;1.58;;
17193;SDS011;8713;48.388;10.928;2023-08-31T04:02:03;3.15;;;1.60;;
17193;SDS011;8713;48.388;10.928;2023-08-31T04:03:14;2.40;;;1.85;;
17193;SDS011;8713;48.388;10.928;2023-08-31T04:04:24;3.58;;;1.52;;
17193;SDS011;8713;48.388;10.928;2023-08-31T04:05:34;2.20;;;1.52;;
17193;SDS011;8713;48.388;10.928;2023-08-31T04:06:43;2.70;;;1.58;;
17193;SDS011;8713;48.388;10.928;2023-08-31T04:07:54;2.58;;;1.48;;
17193;SDS011;8713;48.388;10.928;2023-08-31T04:09:03;2.22;;;1.52;;
17193;SDS011;8713;48.388;10.928;2023-08-31T04:10:13;2.90;;;1.88;;
17193;SDS011;8713;48.388;10.928;2023-08-31T04:11:24;2.13;;;1.58;;
17193;SDS011;8713;48.388;10.928;2023-08-31T04:12:34;2.13;;;1.50;;
17193;SDS011;8713;48.388;10.928;2023-08-31T04:13:44;2.50;;;1.60;;
17193;SDS011;8713;48.388;10.928;2023-08-31T04:14:54;2.42;;;1.50;;
17193;SDS011;8713;48.388;10.928;2023-08-31T04:16:05;3.20;;;1.73;;
17193;SDS011;8713;48.388;10.928;2023-08-31T04:17:14;1.88;;;1.50;;
17193;SDS011;8713;48.388;10.928;2023-08-31T04:18:26;2.17;;;1.52;;
17193;SDS011;8713;48.388;10.928;2023-08-31T04:19:37;2.63;;;1.55;;
17193;SDS011;8713;48.388;10.928;2023-08-31T04:20:50;2.70;;;1.58;;
17193;SDS011;8713;48.388;10.928;2023-08-31T04:22:01;2.10;;;1.67;;
17193;SDS011;8713;48.388;10.928;2023-08-31T04:23:14;1.90;;;1.30;;
17193;SDS011;8713;48.388;10.928;2023-08-31T04:24:23;1.85;;;1.30;;
17193;SDS011;8713;48.388;10.928;2023-08-31T04:25:33;2.78;;;1.52;;
17193;SDS011;8713;48.388;10.928;2023-08-31T04:26:43;2.25;;;1.60;;
17193;SDS011;8713;48.388;10.928;2023-08-31T04:27:54;1.90;;;1.23;;
17193;SDS011;8713;48.388;10.928;2023-08-31T04:29:03;2.08;;;1.50;;
17193;SDS011;8713;48.388;10.928;2023-08-31T04:30:14;2.22;;;1.40;;
17193;SDS011;8713;48.388;10.928;2023-08-31T04:31:24;3.03;;;2.05;;
17193;SDS011;8713;48.388;10.928;2023-08-31T04:32:34;1.60;;;1.38;;
17193;SDS011;8713;48.388;10.928;2023-08-31T04:33:44;2.40;;;1.58;;
17193;SDS011;8713;48.388;10.928;2023-08-31T04:34:54;4.25;;;1.42;;
17193;SDS011;8713;48.388;10.928;2023-08-31T04:36:04;2.08;;;1.30;;
17193;SDS011;8713;48.388;10.928;2023-08-31T04:37:14;3.50;;;1.45;;
17193;SDS011;8713;48.388;10.928;2023-08-31T04:38:24;2.53;;;1.30;;
17193;SDS011;8713;48.388;10.928;2023-08-31T04:39:34;2.90;;;1.25;;
17193;SDS011;8713;48.388;10.928;2023-08-31T04:40:43;4.80;;;1.42;;
17193;SDS011;8713;48.388;10.928;2023-08-31T04:41:53;2.85;;;1.45;;
17193;SDS011;8713;48.388;10.928;2023-08-31T04:43:03;1.98;;;1.27;;
17193;SDS011;8713;48.388;10.928;2023-08-31T04:44:13;3.83;;;1.50;;
17193;SDS011;8713;48.388;10.928;2023-08-31T04:45:22;2.60;;;1.30;;
17193;SDS011;8713;48.388;10.928;2023-08-31T04:46:32;1.70;;;1.30;;
17193;SDS011;8713;48.388;10.928;2023-08-31T04:47:43;1.88;;;1.30;;
17193;SDS011;8713;48.388;10.928;2023-08-31T04:48:55;3.30;;;1.30;;
17193;SDS011;8713;48.388;10.928;2023-08-31T04:50:05;2.28;;;1.30;;
17193;SDS011;8713;48.388;10.928;2023-08-31T04:51:29;2.58;;;1.40;;
17193;SDS011;8713;48.388;10.928;2023-08-31T04:52:39;2.83;;;1.40;;
17193;SDS011;8713;48.388;10.928;2023-08-31T04:53:49;1.75;;;1.30;;
17193;SDS011;8713;48.388;10.928;2023-08-31T04:55:00;2.22;;;1.25;;
17193;SDS011;8713;48.388;10.928;2023-08-31T04:56:10;5.15;;;1.40;;
17193;SDS011;8713;48.388;10.928;2023-08-31T04:57:20;2.42;;;1.40;;
17193;SDS011;8713;48.388;10.928;2023-08-31T04:58:29;2.17;;;1.45;;
17193;SDS011;8713;48.388;10.928;2023-08-31T04:59:39;2.78;;;1.38;;
17193;SDS011;8713;48.388;10.928;2023-08-31T05:00:48;1.80;;;1.15;;
17193;SDS011;8713;48.388;10.928;2023-08-31T05:01:59;3.30;;;1.30;;
17193;SDS011;8713;48.388;10.928;2023-08-31T05:03:08;2.63;;;1.50;;
17193;SDS011;8713;48.388;10.928;2023-08-31T05:04:17;3.10;;;1.25;;
17193;SDS011;8713;48.388;10.928;2023-08-31T05:05:27;1.73;;;1.30;;
17193;SDS011;8713;48.388;10.928;2023-08-31T05:06:36;2.50;;;1.20;;
17193;SDS011;8713;48.388;10.928;2023-08-31T05:07:46;3.38;;;1.33;;
17193;SDS011;8713;48.388;10.928;2023-08-31T05:08:55;2.10;;;1.35;;
17193;SDS011;8713;48.388;10.928;2023-08-31T05:10:05;1.95;;;1.40;;
17193;SDS011;8713;48.388;10.928;2023-08-31T05:11:16;2.30;;;1.40;;
17193;SDS011;8713;48.388;10.928;2023-08-31T05:12:25;2.63;;;1.20;;
17193;SDS011;8713;48.388;10.928;2023-08-31T05:13:35;1.58;;;1.27;;
17193;SDS011;8713;48.388;10.928;2023-08-31T05:14:44;1.35;;;1.15;;
17193;SDS011;8713;48.388;10.928;2023-08-31T05:15:54;2.63;;;1.35;;
17193;SDS011;8713;48.388;10.928;2023-08-31T05:17:03;2.10;;;1.27;;
17193;SDS011;8713;48.388;10.928;2023-08-31T05:18:13;1.63;;;1.30;;
17193;SDS011;8713;48.388;10.928;2023-08-31T05:19:23;1.98;;;1.20;;
17193;SDS011;8713;48.388;10.928;2023-08-31T05:20:33;1.83;;;1.08;;
17193;SDS011;8713;48.388;10.928;2023-08-31T05:21:43;1.75;;;1.15;;
17193;SDS011;8713;48.388;10.928;2023-08-31T05:22:52;2.45;;;1.17;;
17193;SDS011;8713;48.388;10.928;2023-08-31T05:24:02;2.00;;;1.38;;
17193;SDS011;8713;48.388;10.928;2023-08-31T05:25:11;1.45;;;1.20;;
17193;SDS011;8713;48.388;10.928;2023-08-31T05:26:21;3.15;;;1.30;;
17193;SDS011;8713;48.388;10.928;2023-08-31T05:27:30;1.88;;;1.10;;
17193;SDS011;8713;48.388;10.928;2023-08-31T05:28:39;1.63;;;0.88;;
17193;SDS011;8713;48.388;10.928;2023-08-31T05:29:49;1.95;;;1.27;;
17193;SDS011;8713;48.388;10.928;2023-08-31T05:30:59;2.88;;;1.13;;
17193;SDS011;8713;48.388;10.928;2023-08-31T05:32:11;1.85;;;1.17;;
17193;SDS011;8713;48.388;10.928;2023-08-31T05:33:20;2.80;;;1.30;;
17193;SDS011;8713;48.388;10.928;2023-08-31T05:34:31;2.28;;;1.17;;
17193;SDS011;8713;48.388;10.928;2023-08-31T05:35:43;1.42;;;1.20;;
17193;SDS011;8713;48.388;10.928;2023-08-31T05:36:53;3.20;;;1.25;;
17193;SDS011;8713;48.388;10.928;2023-08-31T05:38:02;2.35;;;1.20;;
17193;SDS011;8713;48.388;10.928;2023-08-31T05:39:12;2.25;;;1.20;;
17193;SDS011;8713;48.388;10.928;2023-08-31T05:40:21;1.25;;;1.00;;
17193;SDS011;8713;48.388;10.928;2023-08-31T05:41:31;1.23;;;1.10;;
17193;SDS011;8713;48.388;10.928;2023-08-31T05:42:40;2.15;;;1.25;;
17193;SDS011;8713;48.388;10.928;2023-08-31T05:43:49;2.20;;;1.13;;
17193;SDS011;8713;48.388;10.928;2023-08-31T05:44:59;2.03;;;1.13;;
17193;SDS011;8713;48.388;10.928;2023-08-31T05:46:08;1.88;;;1.20;;
17193;SDS011;8713;48.388;10.928;2023-08-31T05:47:17;1.40;;;1.00;;
17193;SDS011;8713;48.388;10.928;2023-08-31T05:48:26;2.17;;;1.00;;
17193;SDS011;8713;48.388;10.928;2023-08-31T05:49:36;1.27;;;1.08;;
17193;SDS011;8713;48.388;10.928;2023-08-31T05:50:45;1.95;;;1.15;;
17193;SDS011;8713;48.388;10.928;2023-08-31T05:51:55;3.03;;;1.30;;
17193;SDS011;8713;48.388;10.928;2023-08-31T05:53:04;1.73;;;1.10;;
17193;SDS011;8713;48.388;10.928;2023-08-31T05:54:14;2.08;;;1.10;;
17193;SDS011;8713;48.388;10.928;2023-08-31T05:55:23;1.55;;;1.00;;
17193;SDS011;8713;48.388;10.928;2023-08-31T05:56:33;2.28;;;1.10;;
17193;SDS011;8713;48.388;10.928;2023-08-31T05:57:42;3.55;;;1.17;;
17193;SDS011;8713;48.388;10.928;2023-08-31T05:58:52;2.88;;;1.30;;
17193;SDS011;8713;48.388;10.928;2023-08-31T06:00:04;2.65;;;1.23;;
17193;SDS011;8713;48.388;10.928;2023-08-31T06:01:21;1.95;;;1.27;;
17193;SDS011;8713;48.388;10.928;2023-08-31T06:02:31;2.97;;;1.38;;
17193;SDS011;8713;48.388;10.928;2023-08-31T06:03:40;1.42;;;1.10;;
17193;SDS011;8713;48.388;10.928;2023-08-31T06:04:49;1.17;;;1.00;;
17193;SDS011;8713;48.388;10.928;2023-08-31T06:05:59;1.85;;;1.17;;
17193;SDS011;8713;48.388;10.928;2023-08-31T06:07:10;1.27;;;1.10;;
17193;SDS011;8713;48.388;10.928;2023-08-31T06:08:20;1.88;;;1.35;;
17193;SDS011;8713;48.388;10.928;2023-08-31T06:09:29;1.17;;;1.02;;
17193;SDS011;8713;48.388;10.928;2023-08-31T06:10:39;2.15;;;1.40;;
17193;SDS011;8713;48.388;10.928;2023-08-31T06:11:48;3.40;;;1.40;;
17193;SDS011;8713;48.388;10.928;2023-08-31T06:12:57;1.70;;;1.00;;
17193;SDS011;8713;48.388;10.928;2023-08-31T06:14:06;2.42;;;1.50;;
17193;SDS011;8713;48.388;10.928;2023-08-31T06:15:16;2.33;;;1.30;;
17193;SDS011;8713;48.388;10.928;2023-08-31T06:16:26;1.65;;;1.15;;
17193;SDS011;8713;48.388;10.928;2023-08-31T06:17:35;3.55;;;1.30;;
17193;SDS011;8713;48.388;10.928;2023-08-31T06:18:45;2.25;;;1.17;;
17193;SDS011;8713;48.388;10.928;2023-08-31T06:19:54;2.33;;;1.40;;
17193;SDS011;8713;48.388;10.928;2023-08-31T06:21:04;2.20;;;1.10;;
17193;SDS011;8713;48.388;10.928;2023-08-31T06:22:14;1.50;;;1.27;;
17193;SDS011;8713;48.388;10.928;2023-08-31T06:23:23;2.03;;;1.20;;
17193;SDS011;8713;48.388;10.928;2023-08-31T06:24:33;1.98;;;1.30;;
17193;SDS011;8713;48.388;10.928;2023-08-31T06:25:43;3.13;;;1.27;;
17193;SDS011;8713;48.388;10.928;2023-08-31T06:26:54;1.77;;;1.00;;
17193;SDS011;8713;48.388;10.928;2023-08-31T06:28:05;4.28;;;1.20;;
17193;SDS011;8713;48.388;10.928;2023-08-31T06:29:17;3.30;;;1.48;;
17193;SDS011;8713;48.388;10.928;2023-08-31T06:30:27;2.30;;;1.13;;
17193;SDS011;8713;48.388;10.928;2023-08-31T06:31:36;4.28;;;1.30;;
17193;SDS011;8713;48.388;10.928;2023-08-31T06:32:47;2.72;;;1.50;;
17193;SDS011;8713;48.388;10.928;2023-08-31T06:33:56;3.17;;;1.30;;
17193;SDS011;8713;48.388;10.928;2023-08-31T06:35:06;1.92;;;1.25;;
17193;SDS011;8713;48.388;10.928;2023-08-31T06:36:16;2.72;;;1.30;;
17193;SDS011;8713;48.388;10.928;2023-08-31T06:37:26;2.42;;;1.42;;
17193;SDS011;8713;48.388;10.928;2023-08-31T06:38:35;1.98;;;1.20;;
17193;SDS011;8713;48.388;10.928;2023-08-31T06:39:44;1.75;;;1.15;;
17193;SDS011;8713;48.388;10.928;2023-08-31T06:40:54;4.97;;;1.55;;
17193;SDS011;8713;48.388;10.928;2023-08-31T06:42:07;1.85;;;1.30;;
17193;SDS011;8713;48.388;10.928;2023-08-31T06:43:20;2.80;;;1.30;;
17193;SDS011;8713;48.388;10.928;2023-08-31T06:44:30;2.53;;;1.08;;
17193;SDS011;8713;48.388;10.928;2023-08-31T06:45:40;4.03;;;1.63;;
17193;SDS011;8713;48.388;10.928;2023-08-31T06:46:49;2.00;;;1.42;;
17193;SDS011;8713;48.388;10.928;2023-08-31T06:47:59;2.47;;;1.50;;
17193;SDS011;8713;48.388;10.928;2023-08-31T06:49:08;2.00;;;1.10;;
17193;SDS011;8713;48.388;10.928;2023-08-31T06:50:19;1.65;;;1.10;;
17193;SDS011;8713;48.388;10.928;2023-08-31T06:51:28;1.92;;;1.25;;
17193;SDS011;8713;48.388;10.928;2023-08-31T06:52:38;1.40;;;1.02;;
17193;SDS011;8713;48.388;10.928;2023-08-31T06:53:50;2.03;;;1.00;;
17193;SDS011;8713;48.388;10.928;2023-08-31T06:54:59;2.75;;;1.40;;
17193;SDS011;8713;48.388;10.928;2023-08-31T06:56:09;1.95;;;1.23;;
17193;SDS011;8713;48.388;10.928;2023-08-31T06:57:18;3.22;;;1.27;;
17193;SDS011;8713;48.388;10.928;2023-08-31T06:58:28;3.03;;;1.25;;
17193;SDS011;8713;48.388;10.928;2023-08-31T06:59:37;2.47;;;1.10;;
17193;SDS011;8713;48.388;10.928;2023-08-31T07:00:46;2.53;;;1.25;;
17193;SDS011;8713;48.388;10.928;2023-08-31T07:01:57;3.67;;;1.38;;
17193;SDS011;8713;48.388;10.928;2023-08-31T07:03:07;2.30;;;1.30;;
17193;SDS011;8713;48.388;10.928;2023-08-31T07:04:16;3.53;;;1.25;;
17193;SDS011;8713;48.388;10.928;2023-08-31T07:05:26;1.73;;;1.08;;
17193;SDS011;8713;48.388;10.928;2023-08-31T07:06:38;2.13;;;1.10;;
17193;SDS011;8713;48.388;10.928;2023-08-31T07:07:48;2.45;;;1.27;;
17193;SDS011;8713;48.388;10.928;2023-08-31T07:08:57;2.30;;;1.30;;
17193;SDS011;8713;48.388;10.928;2023-08-31T07:10:07;1.40;;;1.10;;
17193;SDS011;8713;48.388;10.928;2023-08-31T07:11:17;1.88;;;1.10;;
17193;SDS011;8713;48.388;10.928;2023-08-31T07:12:27;2.75;;;1.30;;
17193;SDS011;8713;48.388;10.928;2023-08-31T07:13:37;1.67;;;0.93;;
17193;SDS011;8713;48.388;10.928;2023-08-31T07:14:46;2.40;;;1.40;;
17193;SDS011;8713;48.388;10.928;2023-08-31T07:15:56;4.38;;;1.25;;
17193;SDS011;8713;48.388;10.928;2023-08-31T07:17:06;2.40;;;1.10;;
17193;SDS011;8713;48.388;10.928;2023-08-31T07:18:16;3.13;;;1.15;;
17193;SDS011;8713;48.388;10.928;2023-08-31T07:19:25;2.35;;;1.27;;
17193;SDS011;8713;48.388;10.928;2023-08-31T07:20:36;2.63;;;1.20;;
17193;SDS011;8713;48.388;10.928;2023-08-31T07:21:45;2.25;;;1.08;;
17193;SDS011;8713;48.388;10.928;2023-08-31T07:22:58;1.80;;;1.00;;
17193;SDS011;8713;48.388;10.928;2023-08-31T07:24:09;2.97;;;1.15;;
17193;SDS011;8713;48.388;10.928;2023-08-31T07:25:19;2.75;;;1.10;;
17193;SDS011;8713;48.388;10.928;2023-08-31T07:26:28;2.45;;;1.15;;
17193;SDS011;8713;48.388;10.928;2023-08-31T07:27:38;5.35;;;1.27;;
17193;SDS011;8713;48.388;10.928;2023-08-31T07:28:48;3.28;;;1.38;;
17193;SDS011;8713;48.388;10.928;2023-08-31T07:29:58;1.95;;;1.17;;
17193;SDS011;8713;48.388;10.928;2023-08-31T07:31:08;5.10;;;1.42;;
17193;SDS011;8713;48.388;10.928;2023-08-31T07:32:17;4.63;;;1.13;;
17193;SDS011;8713;48.388;10.928;2023-08-31T07:33:27;3.10;;;1.10;;
17193;SDS011;8713;48.388;10.928;2023-08-31T07:34:37;4.87;;;1.47;;
17193;SDS011;8713;48.388;10.928;2023-08-31T07:35:46;2.45;;;1.13;;
17193;SDS011;8713;48.388;10.928;2023-08-31T07:36:56;3.33;;;1.35;;
17193;SDS011;8713;48.388;10.928;2023-08-31T07:38:05;3.25;;;1.20;;
17193;SDS011;8713;48.388;10.928;2023-08-31T07:39:14;3.53;;;1.23;;
17193;SDS011;8713;48.388;10.928;2023-08-31T07:40:26;2.25;;;1.30;;
17193;SDS011;8713;48.388;10.928;2023-08-31T07:41:36;3.55;;;1.20;;
17193;SDS011;8713;48.388;10.928;2023-08-31T07:42:46;1.48;;;1.08;;
17193;SDS011;8713;48.388;10.928;2023-08-31T07:43:55;2.05;;;0.95;;
17193;SDS011;8713;48.388;10.928;2023-08-31T07:45:05;4.40;;;1.15;;
17193;SDS011;8713;48.388;10.928;2023-08-31T07:46:15;1.92;;;1.00;;
17193;SDS011;8713;48.388;10.928;2023-08-31T07:47:26;2.22;;;1.10;;
17193;SDS011;8713;48.388;10.928;2023-08-31T07:48:35;2.28;;;1.00;;
17193;SDS011;8713;48.388;10.928;2023-08-31T07:49:46;2.85;;;1.13;;
17193;SDS011;8713;48.388;10.928;2023-08-31T07:50:56;3.72;;;1.40;;
17193;SDS011;8713;48.388;10.928;2023-08-31T07:52:06;2.28;;;1.10;;
17193;SDS011;8713;48.388;10.928;2023-08-31T07:53:24;2.10;;;1.13;;
17193;SDS011;8713;48.388;10.928;2023-08-31T07:54:34;2.53;;;1.00;;
17193;SDS011;8713;48.388;10.928;2023-08-31T07:55:54;2.60;;;1.13;;
17193;SDS011;8713;48.388;10.928;2023-08-31T07:57:04;4.35;;;1.27;;
17193;SDS011;8713;48.388;10.928;2023-08-31T07:58:13;2.70;;;1.30;;
17193;SDS011;8713;48.388;10.928;2023-08-31T07:59:23;2.47;;;1.05;;
17193;SDS011;8713;48.388;10.928;2023-08-31T08:00:35;3.33;;;1.15;;
17193;SDS011;8713;48.388;10.928;2023-08-31T08:01:46;2.55;;;1.33;;
17193;SDS011;8713;48.388;10.928;2023-08-31T08:02:56;2.42;;;1.02;;
17193;SDS011;8713;48.388;10.928;2023-08-31T08:04:06;2.97;;;1.20;;
17193;SDS011;8713;48.388;10.928;2023-08-31T08:05:15;4.03;;;1.30;;
17193;SDS011;8713;48.388;10.928;2023-08-31T08:06:25;4.25;;;1.10;;
17193;SDS011;8713;48.388;10.928;2023-08-31T08:07:35;1.30;;;1.10;;
17193;SDS011;8713;48.388;10.928;2023-08-31T08:08:44;2.58;;;1.15;;
17193;SDS011;8713;48.388;10.928;2023-08-31T08:09:54;3.20;;;1.40;;
17193;SDS011;8713;48.388;10.928;2023-08-31T08:11:04;2.90;;;1.20;;
17193;SDS011;8713;48.388;10.928;2023-08-31T08:12:14;3.00;;;1.13;;
17193;SDS011;8713;48.388;10.928;2023-08-31T08:13:24;3.72;;;1.33;;
17193;SDS011;8713;48.388;10.928;2023-08-31T08:14:33;2.97;;;1.25;;
17193;SDS011;8713;48.388;10.928;2023-08-31T08:15:44;5.80;;;1.80;;
17193;SDS011;8713;48.388;10.928;2023-08-31T08:16:55;3.22;;;1.02;;
17193;SDS011;8713;48.388;10.928;2023-08-31T08:18:04;3.63;;;1.40;;
17193;SDS011;8713;48.388;10.928;2023-08-31T08:19:13;2.88;;;1.20;;
17193;SDS011;8713;48.388;10.928;2023-08-31T08:20:23;3.85;;;1.05;;
17193;SDS011;8713;48.388;10.928;2023-08-31T08:21:33;2.75;;;1.05;;
17193;SDS011;8713;48.388;10.928;2023-08-31T08:22:43;1.90;;;1.17;;
17193;SDS011;8713;48.388;10.928;2023-08-31T08:23:54;1.70;;;1.05;;
17193;SDS011;8713;48.388;10.928;2023-08-31T08:25:04;3.47;;;1.20;;
17193;SDS011;8713;48.388;10.928;2023-08-31T08:26:15;2.55;;;1.20;;
17193;SDS011;8713;48.388;10.928;2023-08-31T08:27:24;3.17;;;0.98;;
17193;SDS011;8713;48.388;10.928;2023-08-31T08:28:34;2.38;;;1.20;;
17193;SDS011;8713;48.388;10.928;2023-08-31T08:29:44;2.22;;;1.10;;
17193;SDS011;8713;48.388;10.928;2023-08-31T08:30:54;3.50;;;1.30;;
17193;SDS011;8713;48.388;10.928;2023-08-31T08:32:04;2.10;;;1.13;;
17193;SDS011;8713;48.388;10.928;2023-08-31T08:33:14;2.60;;;1.23;;
17193;SDS011;8713;48.388;10.928;2023-08-31T08:34:25;4.50;;;1.10;;
17193;SDS011;8713;48.388;10.928;2023-08-31T08:35:37;2.63;;;0.98;;
17193;SDS011;8713;48.388;10.928;2023-08-31T08:36:46;2.65;;;1.10;;
17193;SDS011;8713;48.388;10.928;2023-08-31T08:37:56;4.32;;;1.00;;
17193;SDS011;8713;48.388;10.928;2023-08-31T08:39:06;5.07;;;1.30;;
17193;SDS011;8713;48.388;10.928;2023-08-31T08:40:15;3.63;;;1.27;;
17193;SDS011;8713;48.388;10.928;2023-08-31T08:41:25;2.45;;;1.08;;
17193;SDS011;8713;48.388;10.928;2023-08-31T08:42:39;4.25;;;1.10;;
17193;SDS011;8713;48.388;10.928;2023-08-31T08:43:51;3.75;;;1.10;;
17193;SDS011;8713;48.388;10.928;2023-08-31T08:45:01;2.15;;;1.10;;
17193;SDS011;8713;48.388;10.928;2023-08-31T08:46:11;2.60;;;1.05;;
17193;SDS011;8713;48.388;10.928;2023-08-31T08:47:21;1.77;;;1.10;;
17193;SDS011;8713;48.388;10.928;2023-08-31T08:48:32;4.32;;;1.30;;
17193;SDS011;8713;48.388;10.928;2023-08-31T08:49:44;3.00;;;1.08;;
17193;SDS011;8713;48.388;10.928;2023-08-31T08:50:54;4.03;;;1.20;;
17193;SDS011;8713;48.388;10.928;2023-08-31T08:52:04;4.25;;;1.30;;
17193;SDS011;8713;48.388;10.928;2023-08-31T08:53:14;2.45;;;1.27;;
17193;SDS011;8713;48.388;10.928;2023-08-31T08:54:24;4.47;;;1.10;;
17193;SDS011;8713;48.388;10.928;2023-08-31T08:55:34;3.85;;;1.23;;
17193;SDS011;8713;48.388;10.928;2023-08-31T08:56:44;5.20;;;1.27;;
17193;SDS011;8713;48.388;10.928;2023-08-31T08:57:53;2.75;;;1.20;;
17193;SDS011;8713;48.388;10.928;2023-08-31T08:59:03;3.67;;;1.30;;
17193;SDS011;8713;48.388;10.928;2023-08-31T09:00:12;4.47;;;1.15;;
17193;SDS011;8713;48.388;10.928;2023-08-31T09:01:22;2.10;;;1.00;;
17193;SDS011;8713;48.388;10.928;2023-08-31T09:02:32;3.47;;;1.15;;
17193;SDS011;8713;48.388;10.928;2023-08-31T09:03:41;4.50;;;1.00;;
17193;SDS011;8713;48.388;10.928;2023-08-31T09:04:51;1.08;;;0.90;;
17193;SDS011;8713;48.388;10.928;2023-08-31T09:06:03;3.13;;;0.93;;
17193;SDS011;8713;48.388;10.928;2023-08-31T09:07:17;3.35;;;1.17;;
17193;SDS011;8713;48.388;10.928;2023-08-31T09:08:27;5.18;;;1.40;;
17193;SDS011;8713;48.388;10.928;2023-08-31T09:09:52;3.90;;;1.55;;
17193;SDS011;8713;48.388;10.928;2023-08-31T09:11:03;3.60;;;1.00;;
17193;SDS011;8713;48.388;10.928;2023-08-31T09:12:12;3.25;;;1.00;;
17193;SDS011;8713;48.388;10.928;2023-08-31T09:13:25;3.67;;;1.10;;
17193;SDS011;8713;48.388;10.928;2023-08-31T09:14:38;2.97;;;1.10;;
17193;SDS011;8713;48.388;10.928;2023-08-31T09:15:48;3.28;;;1.00;;
17193;SDS011;8713;48.388;10.928;2023-08-31T09:16:58;4.10;;;1.30;;
17193;SDS011;8713;48.388;10.928;2023-08-31T09:18:08;4.18;;;1.20;;
17193;SDS011;8713;48.388;10.928;2023-08-31T09:19:35;4.60;;;1.17;;
17193;SDS011;8713;48.388;10.928;2023-08-31T09:20:49;2.15;;;1.10;;
17193;SDS011;8713;48.388;10.928;2023-08-31T09:21:59;5.30;;;1.23;;
17193;SDS011;8713;48.388;10.928;2023-08-31T09:23:09;6.55;;;1.25;;
17193;SDS011;8713;48.388;10.928;2023-08-31T09:24:19;4.43;;;1.20;;
17193;SDS011;8713;48.388;10.928;2023-08-31T09:25:28;2.70;;;0.98;;
17193;SDS011;8713;48.388;10.928;2023-08-31T09:26:38;1.35;;;0.90;;
17193;SDS011;8713;48.388;10.928;2023-08-31T09:27:49;1.92;;;1.13;;
17193;SDS011;8713;48.388;10.928;2023-08-31T09:28:59;3.33;;;1.23;;
17193;SDS011;8713;48.388;10.928;2023-08-31T09:30:08;3.10;;;1.15;;
17193;SDS011;8713;48.388;10.928;2023-08-31T09:31:18;2.67;;;1.20;;
17193;SDS011;8713;48.388;10.928;2023-08-31T09:32:28;4.25;;;1.20;;
17193;SDS011;8713;48.388;10.928;2023-08-31T09:33:38;5.03;;;1.52;;
17193;SDS011;8713;48.388;10.928;2023-08-31T09:34:59;5.75;;;1.25;;
17193;SDS011;8713;48.388;10.928;2023-08-31T09:36:12;6.32;;;1.33;;
17193;SDS011;8713;48.388;10.928;2023-08-31T09:37:23;2.78;;;1.15;;
17193;SDS011;8713;48.388;10.928;2023-08-31T09:38:40;2.08;;;1.00;;
17193;SDS011;8713;48.388;10.928;2023-08-31T09:39:52;6.68;;;1.10;;
17193;SDS011;8713;48.388;10.928;2023-08-31T09:41:04;3.67;;;1.25;;
17193;SDS011;8713;48.388;10.928;2023-08-31T09:42:17;4.68;;;1.40;;
17193;SDS011;8713;48.388;10.928;2023-08-31T09:43:26;2.28;;;1.10;;
17193;SDS011;8713;48.388;10.928;2023-08-31T09:44:39;7.13;;;1.00;;
17193;SDS011;8713;48.388;10.928;2023-08-31T09:45:52;3.00;;;0.90;;
17193;SDS011;8713;48.388;10.928;2023-08-31T09:47:02;2.70;;;0.98;;